createdAt,value
2023-04-13T00:00:27.852Z,7.94
2023-04-13T00:03:17.762Z,7.91
2023-04-13T00:05:46.776Z,7.88
2023-04-13T00:08:17.212Z,7.88
2023-04-13T00:10:46.211Z,7.92
2023-04-13T00:13:15.320Z,7.97
2023-04-13T00:15:43.916Z,8.02
2023-04-13T00:18:12.414Z,8.06
2023-04-13T00:20:41.937Z,8.12
2023-04-13T00:23:10.290Z,8.19
2023-04-13T00:25:38.227Z,8.25
2023-04-13T00:28:06.719Z,8.33
2023-04-13T00:30:34.959Z,8.42
2023-04-13T00:33:05.997Z,8.51
2023-04-13T00:35:34.238Z,8.57
2023-04-13T00:38:05.067Z,8.60
2023-04-13T00:40:33.258Z,8.63
2023-04-13T00:43:02.206Z,8.65
2023-04-13T00:45:30.708Z,8.67
2023-04-13T00:48:00.164Z,8.70
2023-04-13T00:50:28.571Z,8.75
2023-04-13T00:52:58.026Z,8.78
2023-04-13T00:55:27.851Z,8.79
2023-04-13T00:57:56.191Z,8.79
2023-04-13T01:00:25.727Z,8.81
2023-04-13T01:02:55.907Z,8.82
2023-04-13T01:05:26.122Z,8.81
2023-04-13T01:08:18.778Z,8.79
2023-04-13T01:11:13.267Z,8.77
2023-04-13T01:13:44.420Z,8.76
2023-04-13T01:16:19.028Z,8.76
2023-04-13T01:18:52.475Z,8.77
2023-04-13T01:21:25.028Z,8.83
2023-04-13T01:24:02.154Z,8.91
2023-04-13T01:26:46.645Z,8.99
2023-04-13T01:29:14.943Z,9.09
2023-04-13T01:31:44.050Z,9.17
2023-04-13T01:34:12.199Z,9.25
2023-04-13T01:36:40.406Z,9.32
2023-04-13T01:39:10.568Z,9.40
2023-04-13T01:41:38.729Z,9.49
2023-04-13T01:44:07.157Z,9.56
2023-04-13T01:46:35.727Z,9.64
2023-04-13T01:49:11.023Z,9.72
2023-04-13T01:52:02.138Z,9.80
2023-04-13T01:54:33.794Z,9.86
2023-04-13T01:57:02.314Z,9.93
2023-04-13T01:59:30.648Z,9.98
2023-04-13T02:01:59.359Z,10.04
2023-04-13T02:04:28.202Z,10.09
2023-04-13T02:06:56.377Z,10.14
2023-04-13T02:09:31.686Z,10.19
2023-04-13T02:11:59.731Z,10.23
2023-04-13T02:14:27.641Z,10.28
2023-04-13T02:16:55.799Z,10.32
2023-04-13T02:19:24.760Z,10.36
2023-04-13T02:21:53.488Z,10.38
2023-04-13T02:24:21.733Z,10.41
2023-04-13T02:26:49.724Z,10.41
2023-04-13T02:29:17.696Z,10.41
2023-04-13T02:31:46.490Z,10.40
2023-04-13T02:34:14.836Z,10.41
2023-04-13T02:36:43.226Z,10.44
2023-04-13T02:39:11.150Z,10.46
2023-04-13T02:41:42.013Z,10.47
2023-04-13T02:44:11.550Z,10.48
2023-04-13T02:46:47.548Z,10.49
2023-04-13T02:49:17.314Z,10.51
2023-04-13T02:51:55.034Z,10.54
2023-04-13T02:54:30.065Z,10.57
2023-04-13T02:56:58.543Z,10.58
2023-04-13T02:59:26.801Z,10.59
2023-04-13T03:01:58.975Z,10.59
2023-04-13T03:04:29.244Z,10.59
2023-04-13T03:06:58.467Z,10.57
2023-04-13T03:09:26.813Z,10.56
2023-04-13T03:11:56.778Z,10.56
2023-04-13T03:14:29.814Z,10.56
2023-04-13T03:17:05.326Z,10.57
2023-04-13T03:19:38.405Z,10.55
2023-04-13T03:22:06.832Z,10.53
2023-04-13T03:24:37.302Z,10.52
2023-04-13T03:27:07.646Z,10.50
2023-04-13T03:29:39.776Z,10.47
2023-04-13T03:32:08.403Z,10.42
2023-04-13T03:34:43.798Z,10.41
2023-04-13T03:37:12.746Z,10.39
2023-04-13T03:39:41.243Z,10.37
2023-04-13T03:42:11.619Z,10.36
2023-04-13T03:44:43.052Z,10.33
2023-04-13T03:47:11.436Z,10.32
2023-04-13T03:49:39.375Z,10.30
2023-04-13T03:52:07.387Z,10.30
2023-04-13T03:54:40.207Z,10.30
2023-04-13T03:57:08.391Z,10.30
2023-04-13T03:59:36.429Z,10.30
2023-04-13T04:02:04.792Z,10.31
2023-04-13T04:04:33.757Z,10.32
2023-04-13T04:07:01.772Z,10.33
2023-04-13T04:09:29.924Z,10.34
2023-04-13T04:11:58.041Z,10.34
2023-04-13T04:14:36.427Z,10.36
2023-04-13T04:17:14.786Z,10.36
2023-04-13T04:19:43.109Z,10.35
2023-04-13T04:22:14.023Z,10.35
2023-04-13T04:24:42.504Z,10.36
2023-04-13T04:27:14.353Z,10.36
2023-04-13T04:29:49.832Z,10.37
2023-04-13T04:32:24.234Z,10.38
2023-04-13T04:34:53.273Z,10.39
2023-04-13T04:37:22.163Z,10.40
2023-04-13T04:40:01.365Z,10.41
2023-04-13T04:42:29.299Z,10.44
2023-04-13T04:44:57.592Z,10.45
2023-04-13T04:47:30.100Z,10.47
2023-04-13T04:50:21.112Z,10.49
2023-04-13T04:52:53.647Z,10.50
2023-04-13T04:55:23.308Z,10.51
2023-04-13T04:57:51.630Z,10.52
2023-04-13T05:00:21.265Z,10.54
2023-04-13T05:03:01.168Z,10.55
2023-04-13T05:05:30.769Z,10.55
2023-04-13T05:08:01.256Z,10.58
2023-04-13T05:10:30.116Z,10.60
2023-04-13T05:12:58.965Z,10.64
2023-04-13T05:15:28.253Z,10.69
2023-04-13T05:17:56.537Z,10.73
2023-04-13T05:20:28.067Z,10.77
2023-04-13T05:23:01.571Z,10.82
2023-04-13T05:25:29.781Z,10.89
2023-04-13T05:28:00.995Z,10.98
2023-04-13T05:30:29.068Z,11.05
2023-04-13T05:32:57.080Z,11.13
2023-04-13T05:35:28.011Z,11.22
2023-04-13T05:37:57.320Z,11.30
2023-04-13T05:40:26.045Z,11.40
2023-04-13T05:42:54.448Z,11.54
2023-04-13T05:45:25.714Z,11.67
2023-04-13T05:48:02.608Z,11.80
2023-04-13T05:50:30.971Z,11.90
2023-04-13T05:52:59.149Z,11.97
2023-04-13T05:55:29.876Z,12.03
2023-04-13T05:58:06.062Z,12.07
2023-04-13T06:00:34.512Z,12.11
2023-04-13T06:03:04.916Z,12.16
2023-04-13T06:05:35.551Z,12.21
2023-04-13T06:08:03.829Z,12.25
2023-04-13T06:10:31.872Z,12.32
2023-04-13T06:12:59.875Z,12.38
2023-04-13T06:15:27.870Z,12.43
2023-04-13T06:17:55.767Z,12.50
2023-04-13T06:20:24.409Z,12.57
2023-04-13T06:22:52.264Z,12.60
2023-04-13T06:25:21.315Z,12.62
2023-04-13T06:27:50.138Z,12.62
2023-04-13T06:30:18.970Z,12.62
2023-04-13T06:32:47.810Z,12.60
2023-04-13T06:35:17.699Z,12.59
2023-04-13T06:37:47.452Z,12.56
2023-04-13T06:40:21.075Z,12.59
2023-04-13T06:43:00.968Z,12.80
2023-04-13T06:45:48.204Z,13.06
2023-04-13T06:48:21.330Z,13.30
2023-04-13T06:50:52.304Z,13.49
2023-04-13T06:53:20.899Z,13.61
2023-04-13T06:55:48.862Z,13.74
2023-04-13T06:58:17.295Z,13.84
2023-04-13T07:00:45.510Z,13.90
2023-04-13T07:03:13.696Z,13.90
2023-04-13T07:05:45.058Z,13.90
2023-04-13T07:08:15.431Z,13.91
2023-04-13T07:10:44.266Z,13.95
2023-04-13T07:13:18.410Z,14.02
2023-04-13T07:15:47.012Z,14.13
2023-04-13T07:18:15.183Z,14.24
2023-04-13T07:20:43.176Z,14.28
2023-04-13T07:23:12.547Z,14.27
2023-04-13T07:25:41.037Z,14.22
2023-04-13T07:28:15.685Z,14.16
2023-04-13T07:30:44.906Z,14.14
2023-04-13T07:33:13.555Z,14.15
2023-04-13T07:35:41.614Z,14.17
2023-04-13T07:38:10.622Z,14.18
2023-04-13T07:40:38.565Z,14.09
2023-04-13T07:43:09.406Z,13.92
2023-04-13T07:45:38.986Z,13.77
2023-04-13T07:48:08.171Z,13.63
2023-04-13T07:50:42.082Z,13.42
2023-04-13T07:53:13.150Z,13.29
2023-04-13T07:55:41.472Z,13.13
2023-04-13T07:58:09.614Z,13.00
2023-04-13T08:00:37.876Z,12.94
2023-04-13T08:03:07.158Z,12.82
2023-04-13T08:05:36.837Z,12.72
2023-04-13T08:08:05.158Z,12.62
2023-04-13T08:10:33.143Z,12.54
2023-04-13T08:13:03.314Z,12.50
2023-04-13T08:15:31.473Z,12.51
2023-04-13T08:18:00.583Z,12.41
2023-04-13T08:20:29.750Z,12.31
2023-04-13T08:22:58.377Z,12.22
2023-04-13T08:25:26.788Z,12.18
2023-04-13T08:27:54.890Z,12.19
2023-04-13T08:30:23.065Z,12.10
2023-04-13T08:32:58.310Z,11.98
2023-04-13T08:35:26.631Z,11.98
2023-04-13T08:37:55.033Z,12.03
2023-04-13T08:40:23.133Z,12.11
2023-04-13T08:42:55.060Z,12.19
2023-04-13T08:45:23.222Z,12.24
2023-04-13T08:47:51.580Z,12.29
2023-04-13T08:50:22.677Z,12.29
2023-04-13T08:52:54.271Z,12.28
2023-04-13T08:55:22.864Z,12.34
2023-04-13T08:57:56.764Z,12.36
2023-04-13T09:00:25.477Z,12.33
2023-04-13T09:03:05.708Z,12.30
2023-04-13T09:05:42.037Z,12.29
2023-04-13T09:08:13.638Z,12.29
2023-04-13T09:10:42.439Z,12.35
2023-04-13T09:13:10.633Z,12.33
2023-04-13T09:15:39.075Z,12.30
2023-04-13T09:18:23.506Z,12.12
2023-04-13T09:20:59.974Z,12.07
2023-04-13T09:23:27.991Z,12.10
2023-04-13T09:26:06.898Z,12.17
2023-04-13T09:28:45.701Z,12.18
2023-04-13T09:31:13.885Z,12.21
2023-04-13T09:33:49.994Z,12.22
2023-04-13T09:36:20.785Z,12.24
2023-04-13T09:38:53.972Z,12.22
2023-04-13T09:41:40.766Z,12.14
2023-04-13T09:44:17.956Z,12.04
2023-04-13T09:47:02.496Z,12.06
2023-04-13T09:49:38.979Z,12.10
2023-04-13T09:52:08.328Z,12.16
2023-04-13T09:54:36.666Z,12.31
2023-04-13T09:57:05.105Z,12.45
2023-04-13T09:59:34.035Z,12.58
2023-04-13T10:02:03.646Z,12.67
2023-04-13T10:04:31.896Z,12.75
2023-04-13T10:06:59.816Z,12.81
2023-04-13T10:09:27.778Z,12.87
2023-04-13T10:11:56.754Z,12.96
2023-04-13T10:14:31.438Z,13.02
2023-04-13T10:17:31.645Z,13.05
2023-04-13T10:20:07.916Z,13.10
2023-04-13T10:22:36.270Z,13.17
2023-04-13T10:25:06.988Z,13.21
2023-04-13T10:27:36.541Z,13.29
2023-04-13T10:30:18.228Z,13.24
2023-04-13T10:32:46.330Z,13.08
2023-04-13T10:35:15.855Z,13.02
2023-04-13T10:37:46.122Z,12.87
2023-04-13T10:40:16.258Z,12.78
2023-04-13T10:42:52.513Z,12.63
2023-04-13T10:45:28.487Z,12.47
2023-04-13T10:47:58.601Z,12.27
2023-04-13T10:50:29.733Z,12.07
2023-04-13T10:53:00.595Z,11.92
2023-04-13T10:55:29.327Z,11.79
2023-04-13T10:57:59.465Z,11.61
2023-04-13T11:00:44.637Z,11.53
2023-04-13T11:03:17.002Z,11.39
2023-04-13T11:05:47.424Z,11.27
2023-04-13T11:08:20.847Z,11.21
2023-04-13T11:10:52.787Z,11.18
2023-04-13T11:13:21.859Z,11.12
2023-04-13T11:15:49.885Z,11.09
2023-04-13T11:18:26.527Z,11.06
2023-04-13T11:20:54.877Z,11.05
2023-04-13T11:23:24.363Z,11.00
2023-04-13T11:25:58.523Z,10.92
2023-04-13T11:28:36.877Z,10.90
2023-04-13T11:31:06.342Z,10.91
2023-04-13T11:33:34.339Z,10.95
2023-04-13T11:36:02.542Z,11.01
2023-04-13T11:38:30.565Z,11.03
2023-04-13T11:43:37.752Z,11.25
2023-04-13T11:46:06.048Z,11.36
2023-04-13T11:48:34.381Z,11.49
2023-04-13T11:51:02.666Z,11.58
2023-04-13T11:53:32.189Z,11.65
2023-04-13T11:56:00.733Z,11.66
2023-04-13T11:58:28.720Z,11.66
2023-04-13T12:01:02.176Z,11.66
2023-04-13T12:03:42.514Z,11.74
2023-04-13T12:06:22.175Z,11.68
2023-04-13T12:08:57.773Z,11.77
2023-04-13T12:11:43.935Z,11.89
2023-04-13T12:19:27.230Z,12.35
2023-04-13T12:21:57.583Z,12.37
2023-04-13T12:24:38.271Z,12.48
2023-04-13T12:29:41.042Z,12.87
2023-04-13T12:32:17.014Z,12.75
2023-04-13T12:34:45.261Z,12.61
2023-04-13T12:37:13.183Z,12.60
2023-04-13T12:39:42.142Z,12.62
2023-04-13T12:42:10.057Z,12.55
2023-04-13T12:44:37.993Z,12.35
2023-04-13T12:47:06.796Z,12.32
2023-04-13T12:49:34.658Z,12.39
2023-04-13T12:52:02.507Z,12.43
2023-04-13T12:54:30.880Z,12.35
2023-04-13T12:56:59.784Z,12.33
2023-04-13T12:59:27.793Z,12.38
2023-04-13T13:01:56.012Z,12.38
2023-04-13T13:04:24.002Z,12.45
2023-04-13T13:06:52.468Z,12.50
2023-04-13T13:09:20.730Z,12.53
2023-04-13T13:11:48.765Z,12.52
2023-04-13T13:14:16.690Z,12.52
2023-04-13T13:16:44.631Z,12.54
2023-04-13T13:19:12.497Z,12.58
2023-04-13T13:21:40.427Z,12.61
2023-04-13T13:24:08.375Z,12.62
2023-04-13T13:27:00.081Z,12.65
2023-04-13T13:29:24.179Z,12.67
2023-04-13T13:31:52.533Z,12.66
2023-04-13T13:34:20.590Z,12.67
2023-04-13T13:36:49.545Z,12.65
2023-04-13T13:39:18.827Z,12.61
2023-04-13T13:41:47.003Z,12.57
2023-04-13T13:44:15.453Z,12.54
2023-04-13T13:46:43.824Z,12.51
2023-04-13T13:49:11.982Z,12.50
2023-04-13T13:51:43.149Z,12.49
2023-04-13T13:54:12.861Z,12.44
2023-04-13T13:56:40.721Z,12.42
2023-04-13T13:59:08.990Z,12.39
2023-04-13T14:01:37.856Z,12.36
2023-04-13T14:04:05.930Z,12.35
2023-04-13T14:06:33.944Z,12.33
2023-04-13T14:09:02.302Z,12.24
2023-04-13T14:11:31.891Z,12.08
2023-04-13T14:14:10.868Z,11.97
2023-04-13T14:16:39.372Z,11.89
2023-04-13T14:19:07.383Z,11.77
2023-04-13T14:21:35.341Z,11.70
2023-04-13T14:24:03.378Z,11.51
2023-04-13T14:26:31.289Z,11.41
2023-04-13T14:28:59.326Z,11.39
2023-04-13T14:31:27.525Z,11.41
2023-04-13T14:33:55.887Z,11.37
2023-04-13T14:36:24.542Z,11.31
2023-04-13T14:38:52.562Z,11.24
2023-04-13T14:41:21.143Z,11.10
2023-04-13T14:43:49.143Z,10.94
2023-04-13T14:46:17.080Z,10.83
2023-04-13T14:48:44.969Z,10.77
2023-04-13T14:51:17.193Z,10.77
2023-04-13T14:53:45.155Z,10.76
2023-04-13T14:56:13.033Z,10.68
2023-04-13T14:58:41.117Z,10.61
2023-04-13T15:01:17.131Z,10.59
2023-04-13T15:03:46.946Z,10.55
2023-04-13T15:06:15.208Z,10.49
2023-04-13T15:08:43.110Z,10.47
2023-04-13T15:11:11.010Z,10.46
2023-04-13T15:13:39.320Z,10.41
2023-04-13T15:16:07.947Z,10.29
2023-04-13T15:18:36.014Z,10.23
2023-04-13T15:21:04.116Z,10.22
2023-04-13T15:23:33.165Z,10.22
2023-04-13T15:26:01.242Z,10.20
2023-04-13T15:28:29.201Z,10.22
2023-04-13T15:30:57.300Z,10.24
2023-04-13T15:33:25.374Z,10.20
2023-04-13T15:35:53.413Z,10.19
2023-04-13T15:38:21.829Z,10.21
2023-04-13T15:40:49.821Z,10.25
2023-04-13T15:43:17.878Z,10.30
2023-04-13T15:45:48.518Z,10.34
2023-04-13T15:48:17.821Z,10.30
2023-04-13T15:50:45.783Z,10.30
2023-04-13T15:53:13.743Z,10.31
2023-04-13T15:55:42.507Z,10.31
2023-04-13T15:58:10.437Z,10.30
2023-04-13T16:00:38.462Z,10.30
2023-04-13T16:03:06.623Z,10.27
2023-04-13T16:05:34.590Z,10.22
2023-04-13T16:08:03.278Z,10.19
2023-04-13T16:10:31.354Z,10.17
2023-04-13T16:12:59.332Z,10.21
2023-04-13T16:15:27.354Z,10.14
2023-04-13T16:17:57.050Z,10.02
2023-04-13T16:20:28.359Z,9.98
2023-04-13T16:22:59.371Z,9.96
2023-04-13T16:25:27.267Z,9.97
2023-04-13T16:27:56.309Z,9.98
2023-04-13T16:30:24.461Z,9.96
2023-04-13T16:32:52.572Z,9.98
2023-04-13T16:35:20.776Z,10.00
2023-04-13T16:37:48.687Z,9.99
2023-04-13T16:40:16.998Z,9.97
2023-04-13T16:42:46.260Z,9.82
2023-04-13T16:45:15.217Z,9.69
2023-04-13T16:47:43.951Z,9.67
2023-04-13T16:50:12.648Z,9.61
2023-04-13T16:52:41.051Z,9.57
2023-04-13T16:55:14.033Z,9.54
2023-04-13T16:57:43.408Z,9.49
2023-04-13T17:00:12.998Z,9.49
2023-04-13T17:02:43.100Z,9.52
2023-04-13T17:05:12.705Z,9.55
2023-04-13T17:07:43.562Z,9.55
2023-04-13T17:10:13.655Z,9.56
2023-04-13T17:12:42.014Z,9.56
2023-04-13T17:15:10.631Z,9.56
2023-04-13T17:17:38.844Z,9.56
2023-04-13T17:20:08.501Z,9.55
2023-04-13T17:22:37.378Z,9.54
2023-04-13T17:25:05.840Z,9.55
2023-04-13T17:27:34.105Z,9.55
2023-04-13T17:30:02.163Z,9.55
2023-04-13T17:32:30.128Z,9.54
2023-04-13T17:34:58.585Z,9.54
2023-04-13T17:37:29.431Z,9.56
2023-04-13T17:39:57.823Z,9.55
2023-04-13T17:42:27.498Z,9.50
2023-04-13T17:44:56.173Z,9.41
2023-04-13T17:47:25.063Z,9.32
2023-04-13T17:49:53.647Z,9.26
2023-04-13T17:52:21.539Z,9.27
2023-04-13T17:54:49.694Z,9.30
2023-04-13T17:57:17.636Z,9.33
2023-04-13T17:59:46.718Z,9.34
2023-04-13T18:02:14.779Z,9.34
2023-04-13T18:04:43.084Z,9.34
2023-04-13T18:07:11.439Z,9.32
2023-04-13T18:09:39.443Z,9.30
2023-04-13T18:12:07.492Z,9.29
2023-04-13T18:14:35.861Z,9.28
2023-04-13T18:17:03.793Z,9.25
2023-04-13T18:19:32.654Z,9.20
2023-04-13T18:22:01.200Z,9.16
2023-04-13T18:24:29.387Z,9.13
2023-04-13T18:26:57.847Z,9.09
2023-04-13T18:29:26.250Z,9.08
2023-04-13T18:31:54.488Z,9.06
2023-04-13T18:34:22.563Z,9.05
2023-04-13T18:36:50.587Z,9.03
2023-04-13T18:39:19.223Z,9.01
2023-04-13T18:41:47.275Z,8.99
2023-04-13T18:44:15.905Z,8.96
2023-04-13T18:46:43.913Z,8.88
2023-04-13T18:49:11.735Z,8.81
2023-04-13T18:51:39.651Z,8.75
2023-04-13T18:54:07.925Z,8.67
2023-04-13T18:56:36.098Z,8.59
2023-04-13T18:59:04.012Z,8.52
2023-04-13T19:01:32.538Z,8.50
2023-04-13T19:04:01.426Z,8.48
2023-04-13T19:06:30.144Z,8.45
2023-04-13T19:08:58.305Z,8.41
2023-04-13T19:11:27.738Z,8.39
2023-04-13T19:13:56.855Z,8.37
2023-04-13T19:16:26.357Z,8.36
2023-04-13T19:18:54.451Z,8.35
2023-04-13T19:21:23.976Z,8.35
2023-04-13T19:23:52.914Z,8.37
2023-04-13T19:26:21.177Z,8.38
2023-04-13T19:28:49.095Z,8.38
2023-04-13T19:31:17.257Z,8.38
2023-04-13T19:33:46.442Z,8.40
2023-04-13T19:36:15.202Z,8.44
2023-04-13T19:38:45.133Z,8.48
2023-04-13T19:41:13.764Z,8.53
2023-04-13T19:43:42.011Z,8.56
2023-04-13T19:46:10.243Z,8.59
2023-04-13T19:48:39.130Z,8.61
2023-04-13T19:51:08.391Z,8.63
2023-04-13T19:53:38.247Z,8.65
2023-04-13T19:56:06.764Z,8.64
2023-04-13T19:58:35.162Z,8.64
2023-04-13T20:01:04.914Z,8.63
2023-04-13T20:03:33.541Z,8.65
2023-04-13T20:06:02.838Z,8.65
2023-04-13T20:08:30.911Z,8.63
2023-04-13T20:10:59.963Z,8.60
2023-04-13T20:13:28.001Z,8.56
2023-04-13T20:15:55.967Z,8.48
2023-04-13T20:18:23.906Z,8.46
2023-04-13T20:20:52.491Z,8.47
2023-04-13T20:23:20.338Z,8.48
2023-04-13T20:25:48.240Z,8.47
2023-04-13T20:28:17.906Z,8.47
2023-04-13T20:30:45.793Z,8.47
2023-04-13T20:33:13.989Z,8.44
2023-04-13T20:35:42.074Z,8.41
2023-04-13T20:38:10.167Z,8.39
2023-04-13T20:40:38.186Z,8.34
2023-04-13T20:43:06.380Z,8.28
2023-04-13T20:45:36.245Z,8.26
2023-04-13T20:50:35.729Z,8.22
2023-04-13T20:53:04.865Z,8.18
2023-04-13T20:55:33.326Z,8.15
2023-04-13T20:58:01.726Z,8.13
2023-04-13T21:00:29.997Z,8.10
2023-04-13T21:02:57.954Z,8.06
2023-04-13T21:05:26.051Z,8.02
2023-04-13T21:07:55.301Z,7.98
2023-04-13T21:10:24.985Z,7.93
2023-04-13T21:12:52.845Z,7.88
2023-04-13T21:15:20.904Z,7.84
2023-04-13T21:17:49.048Z,7.80
2023-04-13T21:20:16.980Z,7.76
2023-04-13T21:22:44.848Z,7.73
2023-04-13T21:25:12.709Z,7.69
2023-04-13T21:27:40.769Z,7.68
2023-04-13T21:30:09.054Z,7.67
2023-04-13T21:32:37.094Z,7.65
2023-04-13T21:35:05.476Z,7.65
2023-04-13T21:37:33.514Z,7.69
2023-04-13T21:40:01.365Z,7.73
2023-04-13T21:42:29.259Z,7.76
2023-04-13T21:44:57.305Z,7.80
2023-04-13T21:47:25.266Z,7.84
2023-04-13T21:49:53.210Z,7.87
2023-04-13T21:52:21.046Z,7.92
2023-04-13T21:54:51.395Z,7.94
2023-04-13T21:57:19.598Z,7.96
2023-04-13T21:59:47.479Z,7.99
2023-04-13T22:02:15.939Z,8.03
2023-04-13T22:04:43.917Z,8.03
2023-04-13T22:07:12.180Z,8.01
2023-04-13T22:09:40.493Z,8.02
2023-04-13T22:12:10.769Z,8.01
2023-04-13T22:14:38.629Z,8.00
2023-04-13T22:17:06.735Z,8.02
2023-04-13T22:19:34.604Z,8.05
2023-04-13T22:22:02.506Z,8.09
2023-04-13T22:24:30.374Z,8.11
2023-04-13T22:26:58.414Z,8.13
2023-04-13T22:29:26.340Z,8.17
2023-04-13T22:31:54.704Z,8.18
2023-04-13T22:34:22.652Z,8.16
2023-04-13T22:36:52.376Z,8.16
2023-04-13T22:39:20.611Z,8.19
2023-04-13T22:41:48.430Z,8.21
2023-04-13T22:44:16.275Z,8.25
2023-04-13T22:46:44.192Z,8.27
2023-04-13T22:49:12.028Z,8.28
2023-04-13T22:51:40.619Z,8.27
2023-04-13T22:54:08.449Z,8.25
2023-04-13T22:56:36.333Z,8.21
2023-04-13T22:59:04.219Z,8.17
2023-04-13T23:01:32.172Z,8.12
2023-04-13T23:04:00.250Z,8.12
2023-04-13T23:06:28.475Z,8.13
2023-04-13T23:08:59.032Z,8.12
2023-04-13T23:11:27.400Z,8.15
2023-04-13T23:13:55.377Z,8.21
2023-04-13T23:16:23.397Z,8.25
2023-04-13T23:18:51.263Z,8.29
2023-04-13T23:21:19.086Z,8.32
2023-04-13T23:23:46.959Z,8.37
2023-04-13T23:26:14.842Z,8.39
2023-04-13T23:28:42.748Z,8.41
2023-04-13T23:31:10.904Z,8.41
2023-04-13T23:33:39.006Z,8.42
2023-04-13T23:36:07.329Z,8.43
2023-04-13T23:38:35.697Z,8.44
2023-04-13T23:41:03.630Z,8.46
2023-04-13T23:43:32.513Z,8.46
2023-04-13T23:46:00.561Z,8.46
2023-04-13T23:48:28.488Z,8.46
2023-04-13T23:50:57.548Z,8.44
2023-04-13T23:53:25.404Z,8.45
2023-04-13T23:55:53.281Z,8.44
2023-04-13T23:58:21.157Z,8.42
